HBIKS EDDW-LIPZ
Flight info
| Callsign | HBIKS |
|---|---|
| Flight time | N/A |
| Altitude | 38000 |
| Route | WIMCI1M WIMCI Y804 PIROT N850 XAROL DCT BOMBI DCT GIGET DCT ABUKA L607 UTABA M738 NATAG DCT UNTAD M738 ADOSA L612 ALBET |
| Aircraft | CL60/M-SBDE1E2E3FGHIJ1J4J5J7M3RWXYZ/LB1V1D1 |
Departure
| Time | 2026-05-07 18:16 |
|---|---|
| Airport | Bremen Airport (EDDW) |
Arrival
| Time | N/A |
|---|---|
| Airport | Venice Marco Polo Airport (LIPZ) |
| Time | Latitude | Longitude | Altitude | Speed | Heading |
|---|---|---|---|---|---|
| 2026-05-07 18:00 | 53.05242 | 8.77996 | 22 ft | 0 kts | 316° |
| 2026-05-07 18:06 | 53.05243 | 8.77996 | 22 ft | 0 kts | 316° |
| 2026-05-07 18:06 | 53.05240 | 8.78000 | 22 ft | 2 kts | 316° |
| 2026-05-07 18:07 | 53.05229 | 8.78018 | 22 ft | 2 kts | 316° |
| 2026-05-07 18:07 | 53.05218 | 8.78035 | 22 ft | 2 kts | 316° |
| 2026-05-07 18:07 | 53.05207 | 8.78052 | 22 ft | 2 kts | 316° |
| 2026-05-07 18:07 | 53.05201 | 8.78063 | 22 ft | 2 kts | 308° |
| 2026-05-07 18:08 | 53.05194 | 8.78085 | 22 ft | 2 kts | 285° |
| 2026-05-07 18:08 | 53.05193 | 8.78110 | 22 ft | 2 kts | 263° |
| 2026-05-07 18:08 | 53.05194 | 8.78123 | 22 ft | 0 kts | 254° |
| 2026-05-07 18:12 | 53.05193 | 8.78114 | 22 ft | 3 kts | 254° |
| 2026-05-07 18:12 | 53.05171 | 8.78016 | 22 ft | 12 kts | 242° |
| 2026-05-07 18:13 | 53.05107 | 8.77874 | 22 ft | 18 kts | 228° |
| 2026-05-07 18:13 | 53.05008 | 8.77697 | 22 ft | 24 kts | 226° |
| 2026-05-07 18:13 | 53.04890 | 8.77509 | 22 ft | 16 kts | 208° |
| 2026-05-07 18:13 | 53.04807 | 8.77461 | 22 ft | 0 kts | 193° |
| 2026-05-07 18:14 | 53.04786 | 8.77454 | 22 ft | 9 kts | 188° |
| 2026-05-07 18:14 | 53.04700 | 8.77457 | 22 ft | 13 kts | 167° |
| 2026-05-07 18:14 | 53.04659 | 8.77561 | 22 ft | 18 kts | 85° |
| 2026-05-07 18:15 | 53.04661 | 8.77599 | 22 ft | 0 kts | 84° |
| 2026-05-07 18:15 | 53.04663 | 8.77706 | 22 ft | 44 kts | 88° |
| 2026-05-07 18:16 | 53.04692 | 8.78885 | 23 ft | 151 kts | 89° |
| 2026-05-07 18:16 | 53.04757 | 8.80876 | 633 ft | 188 kts | 87° |
| 2026-05-07 18:16 | 53.04825 | 8.83039 | 1783 ft | 196 kts | 87° |
| 2026-05-07 18:16 | 53.04879 | 8.85217 | 3114 ft | 199 kts | 87° |
| 2026-05-07 18:17 | 53.04713 | 8.87696 | 3805 ft | 243 kts | 112° |
| 2026-05-07 18:17 | 53.03575 | 8.89813 | 5138 ft | 264 kts | 143° |
| 2026-05-07 18:17 | 53.01949 | 8.91125 | 6736 ft | 273 kts | 162° |
| 2026-05-07 18:17 | 53.00049 | 8.91535 | 8253 ft | 281 kts | 176° |
| 2026-05-07 18:18 | 52.98108 | 8.91695 | 9762 ft | 288 kts | 176° |
| 2026-05-07 18:18 | 52.96107 | 8.91868 | 11007 ft | 302 kts | 176° |
| 2026-05-07 18:18 | 52.93953 | 8.92054 | 11961 ft | 323 kts | 177° |
| 2026-05-07 18:18 | 52.91647 | 8.92254 | 13159 ft | 335 kts | 177° |
| 2026-05-07 18:19 | 52.89325 | 8.92455 | 14364 ft | 342 kts | 177° |
| 2026-05-07 18:19 | 52.86953 | 8.92661 | 15556 ft | 348 kts | 177° |
| 2026-05-07 18:19 | 52.84528 | 8.92871 | 16679 ft | 355 kts | 177° |
| 2026-05-07 18:19 | 52.82077 | 8.93083 | 17726 ft | 360 kts | 177° |
| 2026-05-07 18:20 | 52.79562 | 8.93301 | 18729 ft | 366 kts | 178° |
| 2026-05-07 18:20 | 52.76991 | 8.93523 | 19740 ft | 371 kts | 178° |
| 2026-05-07 18:20 | 52.74442 | 8.93743 | 20729 ft | 375 kts | 178° |
| 2026-05-07 18:20 | 52.71816 | 8.93970 | 21691 ft | 380 kts | 178° |